sensor_id;sensor_type;location;lat;lon;timestamp;P1;durP1;ratioP1;P2;durP2;ratioP2
46863;SDS011;32598;50.204;6.408;2023-03-01T00:00:48;17.85;;;9.80;;
46863;SDS011;32598;50.204;6.408;2023-03-01T00:03:13;18.30;;;11.00;;
46863;SDS011;32598;50.204;6.408;2023-03-01T00:05:45;20.00;;;10.77;;
46863;SDS011;32598;50.204;6.408;2023-03-01T00:08:10;20.83;;;11.40;;
46863;SDS011;32598;50.204;6.408;2023-03-01T00:10:35;21.65;;;11.18;;
46863;SDS011;32598;50.204;6.408;2023-03-01T00:13:00;20.17;;;11.73;;
46863;SDS011;32598;50.204;6.408;2023-03-01T00:15:26;27.55;;;13.55;;
46863;SDS011;32598;50.204;6.408;2023-03-01T00:17:51;23.27;;;12.75;;
46863;SDS011;32598;50.204;6.408;2023-03-01T00:20:16;22.73;;;12.70;;
46863;SDS011;32598;50.204;6.408;2023-03-01T00:22:41;25.83;;;13.57;;
46863;SDS011;32598;50.204;6.408;2023-03-01T00:25:06;22.40;;;12.88;;
46863;SDS011;32598;50.204;6.408;2023-03-01T00:27:32;23.10;;;12.98;;
46863;SDS011;32598;50.204;6.408;2023-03-01T00:29:57;24.55;;;13.60;;
46863;SDS011;32598;50.204;6.408;2023-03-01T00:32:22;22.52;;;13.63;;
46863;SDS011;32598;50.204;6.408;2023-03-01T00:34:47;23.17;;;12.75;;
46863;SDS011;32598;50.204;6.408;2023-03-01T00:37:22;24.00;;;13.38;;
46863;SDS011;32598;50.204;6.408;2023-03-01T00:39:47;22.08;;;12.80;;
46863;SDS011;32598;50.204;6.408;2023-03-01T00:42:12;25.45;;;13.77;;
46863;SDS011;32598;50.204;6.408;2023-03-01T00:44:38;23.42;;;13.10;;
46863;SDS011;32598;50.204;6.408;2023-03-01T00:47:03;20.13;;;12.55;;
46863;SDS011;32598;50.204;6.408;2023-03-01T00:49:28;22.60;;;13.10;;
46863;SDS011;32598;50.204;6.408;2023-03-01T00:51:53;23.38;;;12.18;;
46863;SDS011;32598;50.204;6.408;2023-03-01T00:54:18;19.25;;;12.27;;
46863;SDS011;32598;50.204;6.408;2023-03-01T00:56:43;25.50;;;13.30;;
46863;SDS011;32598;50.204;6.408;2023-03-01T00:59:09;24.77;;;13.32;;
46863;SDS011;32598;50.204;6.408;2023-03-01T01:01:34;25.95;;;12.75;;
46863;SDS011;32598;50.204;6.408;2023-03-01T01:04:00;23.05;;;12.75;;
46863;SDS011;32598;50.204;6.408;2023-03-01T01:06:30;22.05;;;12.25;;
46863;SDS011;32598;50.204;6.408;2023-03-01T01:08:55;22.25;;;12.90;;
46863;SDS011;32598;50.204;6.408;2023-03-01T01:11:21;22.92;;;13.43;;
46863;SDS011;32598;50.204;6.408;2023-03-01T01:13:47;21.20;;;12.05;;
46863;SDS011;32598;50.204;6.408;2023-03-01T01:16:13;19.20;;;11.38;;
46863;SDS011;32598;50.204;6.408;2023-03-01T01:18:38;23.05;;;12.73;;
46863;SDS011;32598;50.204;6.408;2023-03-01T01:21:14;27.33;;;13.23;;
46863;SDS011;32598;50.204;6.408;2023-03-01T01:23:39;24.75;;;13.00;;
46863;SDS011;32598;50.204;6.408;2023-03-01T01:26:05;24.98;;;13.18;;
46863;SDS011;32598;50.204;6.408;2023-03-01T01:28:31;25.98;;;14.25;;
46863;SDS011;32598;50.204;6.408;2023-03-01T01:30:56;26.88;;;13.65;;
46863;SDS011;32598;50.204;6.408;2023-03-01T01:33:22;24.48;;;13.25;;
46863;SDS011;32598;50.204;6.408;2023-03-01T01:35:47;22.08;;;13.68;;
46863;SDS011;32598;50.204;6.408;2023-03-01T01:38:12;24.17;;;12.88;;
46863;SDS011;32598;50.204;6.408;2023-03-01T01:40:44;23.60;;;13.00;;
46863;SDS011;32598;50.204;6.408;2023-03-01T01:43:16;27.92;;;15.05;;
46863;SDS011;32598;50.204;6.408;2023-03-01T01:45:42;24.70;;;14.65;;
46863;SDS011;32598;50.204;6.408;2023-03-01T01:48:10;24.50;;;14.50;;
46863;SDS011;32598;50.204;6.408;2023-03-01T01:50:37;22.67;;;13.48;;
46863;SDS011;32598;50.204;6.408;2023-03-01T01:53:12;21.42;;;13.48;;
46863;SDS011;32598;50.204;6.408;2023-03-01T01:55:45;22.23;;;13.10;;
46863;SDS011;32598;50.204;6.408;2023-03-01T01:58:13;26.63;;;15.00;;
46863;SDS011;32598;50.204;6.408;2023-03-01T02:00:40;25.60;;;14.75;;
